sensor_id;sensor_type;location;lat;lon;timestamp;P1;durP1;ratioP1;P2;durP2;ratioP2
6388;SDS011;3227;42.654;23.360;2024-03-23T00:51:18;8.17;;;4.80;;
6388;SDS011;3227;42.654;23.360;2024-03-23T00:53:44;12.53;;;5.73;;
6388;SDS011;3227;42.654;23.360;2024-03-23T00:56:11;9.83;;;5.40;;
6388;SDS011;3227;42.654;23.360;2024-03-23T00:58:37;13.83;;;6.07;;
6388;SDS011;3227;42.654;23.360;2024-03-23T01:01:03;9.43;;;5.53;;
6388;SDS011;3227;42.654;23.360;2024-03-23T01:03:29;10.07;;;5.73;;
6388;SDS011;3227;42.654;23.360;2024-03-23T01:05:58;11.97;;;5.20;;
6388;SDS011;3227;42.654;23.360;2024-03-23T01:08:26;10.03;;;5.30;;
6388;SDS011;3227;42.654;23.360;2024-03-23T01:10:55;10.33;;;5.00;;
6388;SDS011;3227;42.654;23.360;2024-03-23T01:13:21;9.87;;;5.10;;
6388;SDS011;3227;42.654;23.360;2024-03-23T01:15:49;9.27;;;5.00;;
6388;SDS011;3227;42.654;23.360;2024-03-23T01:18:14;10.60;;;5.40;;
6388;SDS011;3227;42.654;23.360;2024-03-23T01:20:41;11.40;;;5.20;;
6388;SDS011;3227;42.654;23.360;2024-03-23T01:23:07;8.40;;;4.50;;
6388;SDS011;3227;42.654;23.360;2024-03-23T01:25:35;8.13;;;4.60;;
6388;SDS011;3227;42.654;23.360;2024-03-23T01:28:01;9.40;;;5.00;;
6388;SDS011;3227;42.654;23.360;2024-03-23T01:30:27;9.53;;;4.93;;
6388;SDS011;3227;42.654;23.360;2024-03-23T01:32:53;9.87;;;5.30;;
6388;SDS011;3227;42.654;23.360;2024-03-23T01:35:20;12.30;;;6.20;;
6388;SDS011;3227;42.654;23.360;2024-03-23T01:37:46;11.03;;;5.50;;
6388;SDS011;3227;42.654;23.360;2024-03-23T01:40:12;12.37;;;5.90;;
6388;SDS011;3227;42.654;23.360;2024-03-23T01:42:39;14.97;;;5.57;;
6388;SDS011;3227;42.654;23.360;2024-03-23T01:45:07;15.67;;;5.50;;
6388;SDS011;3227;42.654;23.360;2024-03-23T01:47:34;13.27;;;6.00;;
6388;SDS011;3227;42.654;23.360;2024-03-23T01:50:01;12.83;;;5.93;;
6388;SDS011;3227;42.654;23.360;2024-03-23T01:52:27;13.60;;;5.60;;
6388;SDS011;3227;42.654;23.360;2024-03-23T01:55:10;13.60;;;6.10;;
6388;SDS011;3227;42.654;23.360;2024-03-23T01:57:37;11.83;;;5.63;;
6388;SDS011;3227;42.654;23.360;2024-03-23T02:00:05;7.80;;;4.33;;
6388;SDS011;3227;42.654;23.360;2024-03-23T02:02:32;12.73;;;6.00;;
6388;SDS011;3227;42.654;23.360;2024-03-23T02:04:58;10.80;;;5.23;;
6388;SDS011;3227;42.654;23.360;2024-03-23T02:07:25;12.17;;;6.40;;
6388;SDS011;3227;42.654;23.360;2024-03-23T02:09:51;13.20;;;6.87;;
6388;SDS011;3227;42.654;23.360;2024-03-23T02:12:18;17.73;;;8.10;;
6388;SDS011;3227;42.654;23.360;2024-03-23T02:14:43;14.90;;;6.37;;
6388;SDS011;3227;42.654;23.360;2024-03-23T02:17:11;9.70;;;5.17;;
6388;SDS011;3227;42.654;23.360;2024-03-23T02:19:38;12.77;;;4.80;;
6388;SDS011;3227;42.654;23.360;2024-03-23T02:22:04;11.43;;;5.60;;
6388;SDS011;3227;42.654;23.360;2024-03-23T02:24:38;9.43;;;4.37;;
6388;SDS011;3227;42.654;23.360;2024-03-23T02:27:04;8.80;;;5.03;;
6388;SDS011;3227;42.654;23.360;2024-03-23T02:29:30;10.90;;;5.23;;
6388;SDS011;3227;42.654;23.360;2024-03-23T02:31:56;8.30;;;4.43;;
6388;SDS011;3227;42.654;23.360;2024-03-23T02:34:24;9.97;;;4.67;;
6388;SDS011;3227;42.654;23.360;2024-03-23T02:36:49;11.40;;;5.37;;
6388;SDS011;3227;42.654;23.360;2024-03-23T02:39:16;8.67;;;4.87;;
6388;SDS011;3227;42.654;23.360;2024-03-23T02:41:43;9.53;;;5.20;;
6388;SDS011;3227;42.654;23.360;2024-03-23T02:44:10;12.27;;;5.60;;
6388;SDS011;3227;42.654;23.360;2024-03-23T02:46:37;11.20;;;6.30;;
6388;SDS011;3227;42.654;23.360;2024-03-23T02:49:03;15.03;;;5.97;;
6388;SDS011;3227;42.654;23.360;2024-03-23T02:51:29;11.87;;;6.53;;
6388;SDS011;3227;42.654;23.360;2024-03-23T02:53:56;8.47;;;4.63;;
6388;SDS011;3227;42.654;23.360;2024-03-23T02:56:22;12.97;;;5.97;;
6388;SDS011;3227;42.654;23.360;2024-03-23T02:58:50;8.80;;;5.03;;
6388;SDS011;3227;42.654;23.360;2024-03-23T03:01:15;9.30;;;5.07;;
6388;SDS011;3227;42.654;23.360;2024-03-23T03:03:42;8.90;;;5.07;;
6388;SDS011;3227;42.654;23.360;2024-03-23T03:06:09;10.37;;;5.17;;
6388;SDS011;3227;42.654;23.360;2024-03-23T03:08:35;9.93;;;4.30;;
6388;SDS011;3227;42.654;23.360;2024-03-23T03:11:01;8.57;;;4.93;;
6388;SDS011;3227;42.654;23.360;2024-03-23T03:13:28;8.93;;;5.23;;
6388;SDS011;3227;42.654;23.360;2024-03-23T03:15:55;9.73;;;5.13;;
6388;SDS011;3227;42.654;23.360;2024-03-23T03:18:22;9.77;;;5.30;;
6388;SDS011;3227;42.654;23.360;2024-03-23T03:20:47;10.30;;;5.10;;
6388;SDS011;3227;42.654;23.360;2024-03-23T03:23:14;11.23;;;5.20;;
6388;SDS011;3227;42.654;23.360;2024-03-23T03:25:40;15.60;;;5.80;;
6388;SDS011;3227;42.654;23.360;2024-03-23T03:28:06;13.70;;;6.07;;
6388;SDS011;3227;42.654;23.360;2024-03-23T03:30:32;12.23;;;5.80;;
6388;SDS011;3227;42.654;23.360;2024-03-23T03:33:00;13.80;;;5.90;;
6388;SDS011;3227;42.654;23.360;2024-03-23T03:35:26;12.63;;;5.87;;
6388;SDS011;3227;42.654;23.360;2024-03-23T03:37:55;10.37;;;5.80;;
6388;SDS011;3227;42.654;23.360;2024-03-23T03:40:21;10.93;;;5.60;;
6388;SDS011;3227;42.654;23.360;2024-03-23T03:42:47;10.27;;;5.73;;
6388;SDS011;3227;42.654;23.360;2024-03-23T03:45:14;11.67;;;5.90;;
6388;SDS011;3227;42.654;23.360;2024-03-23T03:47:41;10.97;;;5.10;;
6388;SDS011;3227;42.654;23.360;2024-03-23T03:50:08;10.30;;;5.60;;
6388;SDS011;3227;42.654;23.360;2024-03-23T03:52:35;11.80;;;6.20;;
6388;SDS011;3227;42.654;23.360;2024-03-23T03:55:01;12.30;;;6.03;;
6388;SDS011;3227;42.654;23.360;2024-03-23T03:57:28;11.30;;;5.80;;
6388;SDS011;3227;42.654;23.360;2024-03-23T03:59:54;14.40;;;6.23;;
6388;SDS011;3227;42.654;23.360;2024-03-23T04:02:21;9.50;;;5.17;;
6388;SDS011;3227;42.654;23.360;2024-03-23T04:04:47;14.40;;;5.50;;
6388;SDS011;3227;42.654;23.360;2024-03-23T04:07:15;11.47;;;5.90;;
6388;SDS011;3227;42.654;23.360;2024-03-23T04:09:42;17.93;;;6.07;;
6388;SDS011;3227;42.654;23.360;2024-03-23T04:12:09;12.77;;;5.87;;
6388;SDS011;3227;42.654;23.360;2024-03-23T04:14:34;11.33;;;5.90;;
6388;SDS011;3227;42.654;23.360;2024-03-23T04:17:01;13.83;;;6.47;;
6388;SDS011;3227;42.654;23.360;2024-03-23T04:19:27;16.40;;;6.60;;
6388;SDS011;3227;42.654;23.360;2024-03-23T04:21:54;11.77;;;6.63;;
6388;SDS011;3227;42.654;23.360;2024-03-23T04:24:21;14.67;;;6.70;;
6388;SDS011;3227;42.654;23.360;2024-03-23T04:26:48;14.83;;;6.90;;
6388;SDS011;3227;42.654;23.360;2024-03-23T04:29:14;11.93;;;6.20;;
6388;SDS011;3227;42.654;23.360;2024-03-23T04:31:40;12.70;;;6.50;;
6388;SDS011;3227;42.654;23.360;2024-03-23T04:34:07;13.40;;;6.60;;
6388;SDS011;3227;42.654;23.360;2024-03-23T04:36:34;12.20;;;6.43;;
6388;SDS011;3227;42.654;23.360;2024-03-23T04:38:59;12.23;;;6.03;;
6388;SDS011;3227;42.654;23.360;2024-03-23T04:41:28;16.90;;;5.70;;
6388;SDS011;3227;42.654;23.360;2024-03-23T04:43:55;14.73;;;6.13;;
6388;SDS011;3227;42.654;23.360;2024-03-23T04:46:21;17.07;;;6.50;;
6388;SDS011;3227;42.654;23.360;2024-03-23T04:48:47;12.30;;;6.97;;
6388;SDS011;3227;42.654;23.360;2024-03-23T04:51:20;15.57;;;6.97;;
6388;SDS011;3227;42.654;23.360;2024-03-23T04:53:47;17.97;;;7.63;;
6388;SDS011;3227;42.654;23.360;2024-03-23T04:56:14;12.57;;;6.77;;
6388;SDS011;3227;42.654;23.360;2024-03-23T04:58:41;15.93;;;7.23;;
6388;SDS011;3227;42.654;23.360;2024-03-23T05:01:08;15.77;;;6.63;;
6388;SDS011;3227;42.654;23.360;2024-03-23T05:03:34;16.97;;;7.23;;
6388;SDS011;3227;42.654;23.360;2024-03-23T05:06:01;10.07;;;5.97;;
6388;SDS011;3227;42.654;23.360;2024-03-23T05:08:27;14.30;;;6.67;;
6388;SDS011;3227;42.654;23.360;2024-03-23T05:10:55;14.00;;;6.93;;
6388;SDS011;3227;42.654;23.360;2024-03-23T05:13:21;14.27;;;6.90;;
6388;SDS011;3227;42.654;23.360;2024-03-23T05:15:52;16.77;;;6.73;;
6388;SDS011;3227;42.654;23.360;2024-03-23T05:18:18;13.47;;;6.97;;
6388;SDS011;3227;42.654;23.360;2024-03-23T05:20:44;15.00;;;6.93;;
6388;SDS011;3227;42.654;23.360;2024-03-23T05:23:10;20.83;;;6.73;;
6388;SDS011;3227;42.654;23.360;2024-03-23T05:25:37;14.80;;;6.30;;
6388;SDS011;3227;42.654;23.360;2024-03-23T05:28:03;11.80;;;6.23;;
6388;SDS011;3227;42.654;23.360;2024-03-23T05:30:30;8.33;;;4.87;;
6388;SDS011;3227;42.654;23.360;2024-03-23T05:32:57;13.20;;;6.63;;
6388;SDS011;3227;42.654;23.360;2024-03-23T05:35:24;11.47;;;6.30;;
6388;SDS011;3227;42.654;23.360;2024-03-23T05:37:50;11.57;;;5.37;;
6388;SDS011;3227;42.654;23.360;2024-03-23T05:40:16;12.73;;;6.00;;
6388;SDS011;3227;42.654;23.360;2024-03-23T05:42:42;10.83;;;5.80;;
6388;SDS011;3227;42.654;23.360;2024-03-23T05:45:09;11.40;;;4.90;;
6388;SDS011;3227;42.654;23.360;2024-03-23T05:47:34;14.87;;;6.13;;
6388;SDS011;3227;42.654;23.360;2024-03-23T05:50:03;11.90;;;5.77;;
6388;SDS011;3227;42.654;23.360;2024-03-23T05:52:29;11.67;;;5.70;;
6388;SDS011;3227;42.654;23.360;2024-03-23T05:54:56;11.73;;;5.87;;
6388;SDS011;3227;42.654;23.360;2024-03-23T05:57:23;13.70;;;6.57;;
6388;SDS011;3227;42.654;23.360;2024-03-23T05:59:50;12.23;;;5.97;;
6388;SDS011;3227;42.654;23.360;2024-03-23T06:02:16;10.93;;;5.83;;
6388;SDS011;3227;42.654;23.360;2024-03-23T06:04:45;15.33;;;6.47;;
6388;SDS011;3227;42.654;23.360;2024-03-23T06:07:12;12.17;;;6.17;;
6388;SDS011;3227;42.654;23.360;2024-03-23T06:09:40;11.53;;;6.53;;
6388;SDS011;3227;42.654;23.360;2024-03-23T06:12:06;13.50;;;5.87;;
6388;SDS011;3227;42.654;23.360;2024-03-23T06:14:33;12.40;;;6.17;;
6388;SDS011;3227;42.654;23.360;2024-03-23T06:16:59;14.97;;;7.10;;
6388;SDS011;3227;42.654;23.360;2024-03-23T06:19:26;12.07;;;7.10;;
6388;SDS011;3227;42.654;23.360;2024-03-23T06:21:52;11.40;;;6.30;;
6388;SDS011;3227;42.654;23.360;2024-03-23T06:24:21;12.07;;;6.97;;
6388;SDS011;3227;42.654;23.360;2024-03-23T06:26:46;13.67;;;6.90;;
6388;SDS011;3227;42.654;23.360;2024-03-23T06:29:13;15.27;;;6.70;;
6388;SDS011;3227;42.654;23.360;2024-03-23T06:31:39;14.40;;;6.73;;
6388;SDS011;3227;42.654;23.360;2024-03-23T06:34:06;11.77;;;6.30;;
6388;SDS011;3227;42.654;23.360;2024-03-23T06:36:31;12.70;;;7.00;;
6388;SDS011;3227;42.654;23.360;2024-03-23T06:38:58;15.57;;;6.27;;
6388;SDS011;3227;42.654;23.360;2024-03-23T06:41:25;17.60;;;5.97;;
6388;SDS011;3227;42.654;23.360;2024-03-23T06:43:52;12.80;;;6.00;;
6388;SDS011;3227;42.654;23.360;2024-03-23T06:46:18;12.20;;;6.33;;
6388;SDS011;3227;42.654;23.360;2024-03-23T06:48:45;12.53;;;6.40;;
6388;SDS011;3227;42.654;23.360;2024-03-23T06:51:10;15.47;;;6.13;;
6388;SDS011;3227;42.654;23.360;2024-03-23T06:53:37;11.47;;;6.03;;
6388;SDS011;3227;42.654;23.360;2024-03-23T06:56:03;12.93;;;6.33;;
6388;SDS011;3227;42.654;23.360;2024-03-23T06:58:32;9.67;;;5.60;;
6388;SDS011;3227;42.654;23.360;2024-03-23T07:00:58;10.13;;;5.90;;
6388;SDS011;3227;42.654;23.360;2024-03-23T07:03:24;11.80;;;6.00;;
6388;SDS011;3227;42.654;23.360;2024-03-23T07:05:51;13.40;;;5.70;;
6388;SDS011;3227;42.654;23.360;2024-03-23T07:08:18;9.47;;;5.20;;
6388;SDS011;3227;42.654;23.360;2024-03-23T07:10:47;11.23;;;5.80;;
6388;SDS011;3227;42.654;23.360;2024-03-23T07:13:14;11.77;;;5.90;;
6388;SDS011;3227;42.654;23.360;2024-03-23T07:15:41;11.37;;;5.67;;
6388;SDS011;3227;42.654;23.360;2024-03-23T07:18:08;11.47;;;5.97;;
6388;SDS011;3227;42.654;23.360;2024-03-23T07:20:36;11.83;;;6.20;;
6388;SDS011;3227;42.654;23.360;2024-03-23T07:23:03;12.43;;;5.80;;
6388;SDS011;3227;42.654;23.360;2024-03-23T07:25:29;18.77;;;6.97;;
6388;SDS011;3227;42.654;23.360;2024-03-23T07:27:56;11.80;;;6.07;;
6388;SDS011;3227;42.654;23.360;2024-03-23T07:30:22;16.77;;;6.77;;
6388;SDS011;3227;42.654;23.360;2024-03-23T07:32:50;14.07;;;7.00;;
6388;SDS011;3227;42.654;23.360;2024-03-23T07:35:16;15.07;;;6.93;;
6388;SDS011;3227;42.654;23.360;2024-03-23T07:37:43;14.73;;;7.10;;
6388;SDS011;3227;42.654;23.360;2024-03-23T07:40:09;14.27;;;7.30;;
6388;SDS011;3227;42.654;23.360;2024-03-23T07:42:37;12.90;;;6.80;;
6388;SDS011;3227;42.654;23.360;2024-03-23T07:45:02;13.87;;;7.93;;
6388;SDS011;3227;42.654;23.360;2024-03-23T07:47:30;15.47;;;7.00;;
6388;SDS011;3227;42.654;23.360;2024-03-23T07:49:57;13.97;;;7.80;;
6388;SDS011;3227;42.654;23.360;2024-03-23T07:52:24;14.67;;;7.60;;
6388;SDS011;3227;42.654;23.360;2024-03-23T07:54:49;13.97;;;6.97;;
6388;SDS011;3227;42.654;23.360;2024-03-23T07:57:16;13.57;;;7.13;;
6388;SDS011;3227;42.654;23.360;2024-03-23T07:59:42;12.00;;;7.03;;
6388;SDS011;3227;42.654;23.360;2024-03-23T08:02:09;17.57;;;7.90;;
6388;SDS011;3227;42.654;23.360;2024-03-23T08:04:35;13.53;;;6.90;;
6388;SDS011;3227;42.654;23.360;2024-03-23T08:07:04;14.07;;;7.23;;
6388;SDS011;3227;42.654;23.360;2024-03-23T08:09:29;15.80;;;7.23;;
6388;SDS011;3227;42.654;23.360;2024-03-23T08:11:56;13.97;;;6.60;;
6388;SDS011;3227;42.654;23.360;2024-03-23T08:14:22;15.77;;;7.40;;
6388;SDS011;3227;42.654;23.360;2024-03-23T08:16:48;12.77;;;6.47;;
6388;SDS011;3227;42.654;23.360;2024-03-23T08:19:16;14.80;;;7.32;;
6388;SDS011;3227;42.654;23.360;2024-03-23T08:21:43;14.33;;;6.50;;
6388;SDS011;3227;42.654;23.360;2024-03-23T08:24:10;15.18;;;7.68;;
6388;SDS011;3227;42.654;23.360;2024-03-23T08:26:36;12.97;;;7.10;;
6388;SDS011;3227;42.654;23.360;2024-03-23T08:29:02;16.37;;;8.10;;
6388;SDS011;3227;42.654;23.360;2024-03-23T08:31:29;14.40;;;8.13;;
6388;SDS011;3227;42.654;23.360;2024-03-23T08:33:55;16.87;;;8.20;;
6388;SDS011;3227;42.654;23.360;2024-03-23T08:36:22;14.87;;;7.77;;
6388;SDS011;3227;42.654;23.360;2024-03-23T08:38:49;12.98;;;7.30;;
6388;SDS011;3227;42.654;23.360;2024-03-23T08:41:20;14.53;;;7.17;;
6388;SDS011;3227;42.654;23.360;2024-03-23T08:43:46;16.47;;;6.90;;
6388;SDS011;3227;42.654;23.360;2024-03-23T08:46:13;17.13;;;7.93;;
6388;SDS011;3227;42.654;23.360;2024-03-23T08:48:40;17.77;;;7.53;;
6388;SDS011;3227;42.654;23.360;2024-03-23T08:51:09;12.80;;;8.38;;
6388;SDS011;3227;42.654;23.360;2024-03-23T08:53:35;14.20;;;8.02;;
6388;SDS011;3227;42.654;23.360;2024-03-23T08:56:03;14.93;;;8.20;;
6388;SDS011;3227;42.654;23.360;2024-03-23T08:58:32;15.23;;;8.25;;
6388;SDS011;3227;42.654;23.360;2024-03-23T09:01:03;12.47;;;7.73;;
6388;SDS011;3227;42.654;23.360;2024-03-23T09:03:29;14.23;;;8.65;;
6388;SDS011;3227;42.654;23.360;2024-03-23T09:05:56;17.63;;;7.50;;
6388;SDS011;3227;42.654;23.360;2024-03-23T09:08:24;11.80;;;6.60;;
6388;SDS011;3227;42.654;23.360;2024-03-23T09:10:51;13.27;;;6.53;;
6388;SDS011;3227;42.654;23.360;2024-03-23T09:13:17;14.60;;;7.60;;
6388;SDS011;3227;42.654;23.360;2024-03-23T09:15:49;18.83;;;7.17;;
6388;SDS011;3227;42.654;23.360;2024-03-23T09:18:16;13.47;;;6.90;;
6388;SDS011;3227;42.654;23.360;2024-03-23T09:20:43;15.90;;;7.57;;
6388;SDS011;3227;42.654;23.360;2024-03-23T09:23:09;14.88;;;8.30;;
6388;SDS011;3227;42.654;23.360;2024-03-23T09:25:36;13.93;;;7.33;;
6388;SDS011;3227;42.654;23.360;2024-03-23T09:28:03;13.70;;;6.97;;
6388;SDS011;3227;42.654;23.360;2024-03-23T09:30:30;13.03;;;6.57;;
6388;SDS011;3227;42.654;23.360;2024-03-23T09:32:58;11.97;;;6.33;;
6388;SDS011;3227;42.654;23.360;2024-03-23T09:35:25;11.30;;;6.80;;
6388;SDS011;3227;42.654;23.360;2024-03-23T09:37:50;13.37;;;6.93;;
6388;SDS011;3227;42.654;23.360;2024-03-23T09:40:17;13.30;;;6.97;;
6388;SDS011;3227;42.654;23.360;2024-03-23T09:42:43;12.37;;;6.27;;
6388;SDS011;3227;42.654;23.360;2024-03-23T09:45:16;12.18;;;6.60;;
6388;SDS011;3227;42.654;23.360;2024-03-23T09:47:45;12.77;;;6.60;;
6388;SDS011;3227;42.654;23.360;2024-03-23T09:50:13;12.57;;;6.23;;
6388;SDS011;3227;42.654;23.360;2024-03-23T09:52:39;12.50;;;6.50;;
6388;SDS011;3227;42.654;23.360;2024-03-23T09:55:07;11.53;;;5.97;;
6388;SDS011;3227;42.654;23.360;2024-03-23T09:57:34;14.68;;;6.70;;
6388;SDS011;3227;42.654;23.360;2024-03-23T10:00:00;12.88;;;6.63;;
6388;SDS011;3227;42.654;23.360;2024-03-23T10:02:28;11.27;;;6.40;;
6388;SDS011;3227;42.654;23.360;2024-03-23T10:04:54;13.57;;;5.90;;
6388;SDS011;3227;42.654;23.360;2024-03-23T10:07:25;13.97;;;5.93;;
6388;SDS011;3227;42.654;23.360;2024-03-23T10:09:53;10.53;;;6.30;;
6388;SDS011;3227;42.654;23.360;2024-03-23T10:12:21;11.23;;;5.93;;
6388;SDS011;3227;42.654;23.360;2024-03-23T10:14:48;10.50;;;5.47;;
6388;SDS011;3227;42.654;23.360;2024-03-23T10:17:15;14.77;;;5.80;;
6388;SDS011;3227;42.654;23.360;2024-03-23T10:19:43;10.23;;;6.00;;
6388;SDS011;3227;42.654;23.360;2024-03-23T10:22:13;10.70;;;6.10;;
6388;SDS011;3227;42.654;23.360;2024-03-23T10:24:41;11.67;;;6.17;;
6388;SDS011;3227;42.654;23.360;2024-03-23T10:27:08;11.83;;;6.70;;
6388;SDS011;3227;42.654;23.360;2024-03-23T10:29:34;12.63;;;6.30;;
6388;SDS011;3227;42.654;23.360;2024-03-23T10:32:10;10.17;;;6.33;;
6388;SDS011;3227;42.654;23.360;2024-03-23T10:34:36;13.40;;;6.30;;
6388;SDS011;3227;42.654;23.360;2024-03-23T10:37:04;13.87;;;6.37;;
6388;SDS011;3227;42.654;23.360;2024-03-23T10:39:31;11.33;;;6.20;;
6388;SDS011;3227;42.654;23.360;2024-03-23T10:42:01;13.07;;;6.90;;
6388;SDS011;3227;42.654;23.360;2024-03-23T10:44:28;13.00;;;6.77;;
6388;SDS011;3227;42.654;23.360;2024-03-23T10:46:56;12.93;;;6.53;;
6388;SDS011;3227;42.654;23.360;2024-03-23T10:49:25;13.47;;;6.40;;
6388;SDS011;3227;42.654;23.360;2024-03-23T10:51:54;14.77;;;6.70;;
6388;SDS011;3227;42.654;23.360;2024-03-23T10:54:20;10.90;;;6.53;;
6388;SDS011;3227;42.654;23.360;2024-03-23T10:56:48;12.17;;;6.30;;
6388;SDS011;3227;42.654;23.360;2024-03-23T10:59:18;11.00;;;6.60;;
6388;SDS011;3227;42.654;23.360;2024-03-23T11:01:54;14.70;;;6.73;;
6388;SDS011;3227;42.654;23.360;2024-03-23T11:04:35;11.23;;;6.37;;
6388;SDS011;3227;42.654;23.360;2024-03-23T11:09:59;10.97;;;5.37;;
6388;SDS011;3227;42.654;23.360;2024-03-23T11:12:29;13.07;;;5.60;;
6388;SDS011;3227;42.654;23.360;2024-03-23T11:14:59;12.40;;;6.10;;
6388;SDS011;3227;42.654;23.360;2024-03-23T11:17:28;13.93;;;6.50;;
6388;SDS011;3227;42.654;23.360;2024-03-23T11:19:54;11.53;;;6.27;;
6388;SDS011;3227;42.654;23.360;2024-03-23T11:22:38;9.73;;;5.40;;
6388;SDS011;3227;42.654;23.360;2024-03-23T11:25:12;11.70;;;5.73;;
6388;SDS011;3227;42.654;23.360;2024-03-23T11:27:48;12.40;;;5.50;;
6388;SDS011;3227;42.654;23.360;2024-03-23T11:30:17;10.20;;;5.23;;
6388;SDS011;3227;42.654;23.360;2024-03-23T11:32:45;9.30;;;4.90;;
6388;SDS011;3227;42.654;23.360;2024-03-23T11:35:24;10.80;;;5.67;;
6388;SDS011;3227;42.654;23.360;2024-03-23T11:38:04;12.02;;;6.30;;
6388;SDS011;3227;42.654;23.360;2024-03-23T11:40:32;10.65;;;5.97;;
6388;SDS011;3227;42.654;23.360;2024-03-23T11:42:59;12.37;;;6.30;;
6388;SDS011;3227;42.654;23.360;2024-03-23T11:45:27;14.80;;;6.53;;
6388;SDS011;3227;42.654;23.360;2024-03-23T11:48:04;12.87;;;6.23;;
6388;SDS011;3227;42.654;23.360;2024-03-23T11:50:31;11.77;;;6.27;;
6388;SDS011;3227;42.654;23.360;2024-03-23T11:53:08;11.77;;;5.93;;
6388;SDS011;3227;42.654;23.360;2024-03-23T11:55:41;13.03;;;4.97;;
6388;SDS011;3227;42.654;23.360;2024-03-23T11:58:09;13.15;;;6.32;;
6388;SDS011;3227;42.654;23.360;2024-03-23T12:00:37;10.02;;;5.50;;
6388;SDS011;3227;42.654;23.360;2024-03-23T12:03:04;10.88;;;5.70;;
6388;SDS011;3227;42.654;23.360;2024-03-23T12:05:31;12.60;;;6.07;;
6388;SDS011;3227;42.654;23.360;2024-03-23T12:08:17;10.17;;;5.77;;
6388;SDS011;3227;42.654;23.360;2024-03-23T12:10:47;10.73;;;5.57;;
6388;SDS011;3227;42.654;23.360;2024-03-23T12:13:17;11.43;;;5.80;;
6388;SDS011;3227;42.654;23.360;2024-03-23T12:15:45;12.63;;;5.60;;
6388;SDS011;3227;42.654;23.360;2024-03-23T12:18:13;12.20;;;6.80;;
6388;SDS011;3227;42.654;23.360;2024-03-23T12:20:39;11.98;;;5.90;;
6388;SDS011;3227;42.654;23.360;2024-03-23T12:23:06;10.95;;;6.00;;
6388;SDS011;3227;42.654;23.360;2024-03-23T12:25:34;11.07;;;6.05;;
6388;SDS011;3227;42.654;23.360;2024-03-23T12:28:02;9.20;;;5.23;;
6388;SDS011;3227;42.654;23.360;2024-03-23T12:30:28;11.17;;;5.60;;
6388;SDS011;3227;42.654;23.360;2024-03-23T12:32:56;10.77;;;5.10;;
6388;SDS011;3227;42.654;23.360;2024-03-23T12:35:22;12.10;;;5.70;;
6388;SDS011;3227;42.654;23.360;2024-03-23T12:37:48;9.93;;;5.23;;
6388;SDS011;3227;42.654;23.360;2024-03-23T12:40:14;9.10;;;5.03;;
6388;SDS011;3227;42.654;23.360;2024-03-23T12:42:41;13.07;;;5.33;;
6388;SDS011;3227;42.654;23.360;2024-03-23T12:45:07;13.37;;;5.73;;
6388;SDS011;3227;42.654;23.360;2024-03-23T12:47:34;9.02;;;4.65;;
6388;SDS011;3227;42.654;23.360;2024-03-23T12:50:01;7.70;;;3.83;;
6388;SDS011;3227;42.654;23.360;2024-03-23T12:52:28;11.37;;;4.17;;
6388;SDS011;3227;42.654;23.360;2024-03-23T12:54:55;7.55;;;4.30;;
6388;SDS011;3227;42.654;23.360;2024-03-23T12:57:22;7.75;;;3.83;;
6388;SDS011;3227;42.654;23.360;2024-03-23T12:59:49;8.80;;;4.75;;
6388;SDS011;3227;42.654;23.360;2024-03-23T13:02:17;8.02;;;3.90;;
6388;SDS011;3227;42.654;23.360;2024-03-23T13:04:46;8.32;;;3.85;;
6388;SDS011;3227;42.654;23.360;2024-03-23T13:07:16;9.00;;;4.30;;
6388;SDS011;3227;42.654;23.360;2024-03-23T13:09:42;8.55;;;4.20;;
6388;SDS011;3227;42.654;23.360;2024-03-23T13:12:09;7.40;;;3.67;;
6388;SDS011;3227;42.654;23.360;2024-03-23T13:14:35;8.60;;;3.90;;
6388;SDS011;3227;42.654;23.360;2024-03-23T13:17:02;8.20;;;3.60;;
6388;SDS011;3227;42.654;23.360;2024-03-23T13:19:29;6.68;;;3.60;;
6388;SDS011;3227;42.654;23.360;2024-03-23T13:21:56;9.48;;;3.30;;
6388;SDS011;3227;42.654;23.360;2024-03-23T13:24:31;7.90;;;3.67;;
6388;SDS011;3227;42.654;23.360;2024-03-23T13:26:58;7.78;;;3.47;;
6388;SDS011;3227;42.654;23.360;2024-03-23T13:29:24;7.22;;;3.10;;
6388;SDS011;3227;42.654;23.360;2024-03-23T13:31:51;6.57;;;2.90;;
6388;SDS011;3227;42.654;23.360;2024-03-23T13:34:18;5.25;;;2.75;;
6388;SDS011;3227;42.654;23.360;2024-03-23T13:36:45;5.45;;;2.80;;
6388;SDS011;3227;42.654;23.360;2024-03-23T13:39:12;5.63;;;2.85;;
6388;SDS011;3227;42.654;23.360;2024-03-23T13:41:40;8.68;;;2.58;;
6388;SDS011;3227;42.654;23.360;2024-03-23T13:44:07;7.40;;;3.08;;
6388;SDS011;3227;42.654;23.360;2024-03-23T13:46:35;4.70;;;2.78;;
6388;SDS011;3227;42.654;23.360;2024-03-23T13:49:04;7.28;;;3.15;;
6388;SDS011;3227;42.654;23.360;2024-03-23T13:51:31;3.63;;;1.98;;
6388;SDS011;3227;42.654;23.360;2024-03-23T13:53:57;3.90;;;1.80;;
6388;SDS011;3227;42.654;23.360;2024-03-23T13:56:26;4.85;;;1.90;;
6388;SDS011;3227;42.654;23.360;2024-03-23T13:58:53;7.05;;;2.30;;
6388;SDS011;3227;42.654;23.360;2024-03-23T14:01:20;5.43;;;2.75;;
6388;SDS011;3227;42.654;23.360;2024-03-23T14:03:46;7.40;;;3.35;;
6388;SDS011;3227;42.654;23.360;2024-03-23T14:06:12;6.68;;;3.70;;
6388;SDS011;3227;42.654;23.360;2024-03-23T14:08:38;8.18;;;3.55;;
6388;SDS011;3227;42.654;23.360;2024-03-23T14:11:05;7.22;;;3.50;;
6388;SDS011;3227;42.654;23.360;2024-03-23T14:13:31;6.23;;;2.80;;
6388;SDS011;3227;42.654;23.360;2024-03-23T14:15:59;5.82;;;3.03;;
6388;SDS011;3227;42.654;23.360;2024-03-23T14:18:25;8.88;;;3.70;;
6388;SDS011;3227;42.654;23.360;2024-03-23T14:20:52;3.85;;;2.05;;
6388;SDS011;3227;42.654;23.360;2024-03-23T14:23:23;5.45;;;1.98;;
6388;SDS011;3227;42.654;23.360;2024-03-23T14:25:50;2.15;;;1.65;;
6388;SDS011;3227;42.654;23.360;2024-03-23T14:28:18;4.35;;;1.80;;
6388;SDS011;3227;42.654;23.360;2024-03-23T14:30:44;5.82;;;1.90;;
6388;SDS011;3227;42.654;23.360;2024-03-23T14:33:12;4.35;;;2.00;;
6388;SDS011;3227;42.654;23.360;2024-03-23T14:35:39;4.13;;;1.85;;
6388;SDS011;3227;42.654;23.360;2024-03-23T14:38:05;1.80;;;1.58;;
6388;SDS011;3227;42.654;23.360;2024-03-23T14:40:31;2.97;;;1.67;;
6388;SDS011;3227;42.654;23.360;2024-03-23T14:42:57;3.20;;;1.70;;
6388;SDS011;3227;42.654;23.360;2024-03-23T14:45:24;1.88;;;1.60;;
6388;SDS011;3227;42.654;23.360;2024-03-23T14:47:49;3.75;;;1.80;;
6388;SDS011;3227;42.654;23.360;2024-03-23T14:50:18;2.28;;;1.65;;
6388;SDS011;3227;42.654;23.360;2024-03-23T14:52:44;2.85;;;1.80;;
6388;SDS011;3227;42.654;23.360;2024-03-23T14:55:11;3.08;;;1.73;;
6388;SDS011;3227;42.654;23.360;2024-03-23T14:57:37;3.28;;;1.90;;
6388;SDS011;3227;42.654;23.360;2024-03-23T15:00:06;3.83;;;1.75;;
6388;SDS011;3227;42.654;23.360;2024-03-23T15:02:33;2.88;;;1.70;;
6388;SDS011;3227;42.654;23.360;2024-03-23T15:05:03;3.80;;;2.00;;
6388;SDS011;3227;42.654;23.360;2024-03-23T15:07:30;4.47;;;1.80;;
6388;SDS011;3227;42.654;23.360;2024-03-23T15:09:57;2.47;;;1.60;;
6388;SDS011;3227;42.654;23.360;2024-03-23T15:12:23;3.70;;;1.88;;
6388;SDS011;3227;42.654;23.360;2024-03-23T15:14:50;3.45;;;1.80;;
6388;SDS011;3227;42.654;23.360;2024-03-23T15:17:15;3.75;;;1.83;;
6388;SDS011;3227;42.654;23.360;2024-03-23T15:19:43;2.92;;;1.80;;
6388;SDS011;3227;42.654;23.360;2024-03-23T15:22:09;4.40;;;1.90;;
6388;SDS011;3227;42.654;23.360;2024-03-23T15:24:37;4.28;;;2.05;;
6388;SDS011;3227;42.654;23.360;2024-03-23T15:27:04;3.55;;;1.73;;
6388;SDS011;3227;42.654;23.360;2024-03-23T15:29:32;3.30;;;1.77;;
6388;SDS011;3227;42.654;23.360;2024-03-23T15:31:59;3.25;;;1.88;;
6388;SDS011;3227;42.654;23.360;2024-03-23T15:34:25;3.78;;;1.90;;
6388;SDS011;3227;42.654;23.360;2024-03-23T15:36:51;7.07;;;2.30;;
6388;SDS011;3227;42.654;23.360;2024-03-23T15:39:17;3.67;;;1.95;;
6388;SDS011;3227;42.654;23.360;2024-03-23T15:41:48;6.97;;;2.08;;
6388;SDS011;3227;42.654;23.360;2024-03-23T15:44:14;5.03;;;2.00;;
6388;SDS011;3227;42.654;23.360;2024-03-23T15:46:41;3.37;;;1.97;;